Maersk Bulan — 9V7693 — position and weather

sailwx.info

Track history (hours):
 
Tides and Currents Weather Stations Pressure Air Temp Water Temp Dewpoint Dewpoint Depression Visibility Wind Speed Wind Dir Waves Ship Positions

Maersk Bulan

Last reported at 2014-Aug-22 08:33 UTC. Time now 2014-Aug-22 13:50 UTC.
Position N 36°26' E 014°34'.

Length 223 m; draft 10.2 m.

Type: Ship (hazmat cat A). MMSI: 563455000.

Date/timePositionNaut miles runAvg speedWind from/ knotsBaromVisibWave heightAir tempDewpointWater temp
2014-Aug-22 08:33N 36°26' E 014°34'1211.5
2014-Aug-22 07:33N 36°23' E 014°48'1111.2
2014-Aug-22 06:33N 36°20' E 015°01'2611.7
2014-Aug-22 04:21N 36°20' E 015°33'36211.2
2014-Aug-20 20:10N 36°25' E 023°02'1110.5
2014-Aug-20 19:07N 36°25' E 023°16'712.0
2014-Aug-20 18:32N 36°31' E 023°21'1111.4
2014-Aug-20 17:33N 36°41' E 023°27'1411.4
2014-Aug-20 16:20N 36°52' E 023°37'1011.3
2014-Aug-20 15:25N 37°00' E 023°46'1012.1
2014-Aug-20 14:33N 37°08' E 023°55'1312.4
2014-Aug-20 13:33N 37°17' E 024°06'2412.2
2014-Aug-20 11:33N 37°35' E 024°26'1312.6
2014-Aug-20 10:33N 37°46' E 024°33'2912.3
2014-Aug-20 08:14N 38°10' E 024°53'1313.9
2014-Aug-20 07:17N 38°20' E 025°04'911.7
2014-Aug-20 06:31N 38°27' E 025°11'1411.8
2014-Aug-20 05:21N 38°37' E 025°23'911.4
2014-Aug-20 04:33N 38°43' E 025°32'71 2.2
2014-Aug-18 20:06N 39°52' E 025°52'14611.5
2014-Aug-18 07:23N 40°45' E 028°51'1113.4
2014-Aug-18 06:33N 40°45' E 029°06'1313.0
2014-Aug-18 05:33N 40°44' E 029°23'10 9.7
2014-Aug-18 04:29N 40°45' E 029°37'2 0.1
2014-Aug-17 09:11N 40°45' E 029°35'6 9.6
2014-Aug-17 08:33N 40°44' E 029°27'9 8.3
2014-Aug-17 07:26N 40°43' E 029°15'0 0.1
2014-Aug-17 06:20N 40°43' E 029°15'0 0.1
2014-Aug-17 05:26N 40°43' E 029°15'3 3.5
2014-Aug-17 04:33N 40°44' E 029°11'1515.5
2014-Aug-17 03:33N 40°46' E 028°51'1212.1
2014-Aug-17 02:32N 40°56' E 028°41'2 0.3
2014-Aug-16 19:17N 40°58' E 028°41'0 0.0
2014-Aug-16 18:32N 40°58' E 028°41'2 0.1
2014-Aug-16 06:33N 40°56' E 028°41'2 1.7
2014-Aug-16 05:29N 40°55' E 028°39'  
2014-Aug-13 22:33N 43°54' E 035°57'1111.1
2014-Aug-13 21:33N 43°59' E 036°11'2311.4
2014-Aug-13 19:33N 44°09' E 036°39'1211.9
2014-Aug-13 18:33N 44°15' E 036°54'48 9.3
2014-Aug-13 13:21N 44°43' E 037°49'0 0.0
2014-Aug-13 12:33N 44°43' E 037°49'0 0.0
2014-Aug-13 11:33N 44°43' E 037°49'0 0.0
2014-Aug-13 10:33N 44°43' E 037°49'0 0.0
2014-Aug-13 09:27N 44°43' E 037°49'0 0.0
2014-Aug-13 08:33N 44°43' E 037°49'0 0.0
2014-Aug-13 07:33N 44°43' E 037°49'0 0.0
2014-Aug-13 05:21N 44°43' E 037°49'0 0.0
2014-Aug-13 04:30N 44°43' E 037°49'0 0.0
2014-Aug-13 03:33N 44°43' E 037°49'0 0.0
2014-Aug-13 02:27N 44°43' E 037°49'0 0.0
2014-Aug-13 01:32N 44°43' E 037°49'0 0.0
2014-Aug-13 00:32N 44°43' E 037°49'0 0.0
2014-Aug-12 23:33N 44°43' E 037°49'0 0.0
2014-Aug-12 22:21N 44°43' E 037°49'0 0.0
2014-Aug-12 21:32N 44°43' E 037°49'0 0.0
2014-Aug-12 20:32N 44°43' E 037°49'0 0.0
2014-Aug-12 19:32N 44°43' E 037°49'0 0.0
2014-Aug-12 18:26N 44°43' E 037°49'0 0.0
2014-Aug-12 17:32N 44°43' E 037°49'0 0.0
2014-Aug-12 16:32N 44°43' E 037°49'0 0.0
2014-Aug-12 15:26N 44°43' E 037°49'0 0.0
2014-Aug-12 14:32N 44°43' E 037°49'0 0.0
2014-Aug-12 13:32N 44°43' E 037°49'0 0.0
2014-Aug-12 12:32N 44°43' E 037°49'0 0.0
2014-Aug-12 11:14N 44°43' E 037°49'1 1.0
2014-Aug-12 10:33N 44°43' E 037°48'  
Track history (hours):
 
Tides and Currents Weather Stations Pressure Air Temp Water Temp Dewpoint Dewpoint Depression Visibility Wind Speed Wind Dir Waves Ship Positions

Maersk Bulan

Last reported at 2014-Aug-22 08:33 UTC. Time now 2014-Aug-22 13:50 UTC.
Position N 36°26' E 014°34'.

Length 223 m; draft 10.2 m.

Type: Ship (hazmat cat A). MMSI: 563455000.

Date/timePositionNaut miles runAvg speedWind from/ knotsBaromVisibWave heightAir tempDewpointWater temp
2014-Aug-22 08:33N 36°26' E 014°34'1211.5
2014-Aug-22 07:33N 36°23' E 014°48'1111.2
2014-Aug-22 06:33N 36°20' E 015°01'2611.7
2014-Aug-22 04:21N 36°20' E 015°33'36211.2
2014-Aug-20 20:10N 36°25' E 023°02'1110.5
2014-Aug-20 19:07N 36°25' E 023°16'712.0
2014-Aug-20 18:32N 36°31' E 023°21'1111.4
2014-Aug-20 17:33N 36°41' E 023°27'1411.4
2014-Aug-20 16:20N 36°52' E 023°37'1011.3
2014-Aug-20 15:25N 37°00' E 023°46'1012.1
2014-Aug-20 14:33N 37°08' E 023°55'1312.4
2014-Aug-20 13:33N 37°17' E 024°06'2412.2
2014-Aug-20 11:33N 37°35' E 024°26'1312.6
2014-Aug-20 10:33N 37°46' E 024°33'2912.3
2014-Aug-20 08:14N 38°10' E 024°53'1313.9
2014-Aug-20 07:17N 38°20' E 025°04'911.7
2014-Aug-20 06:31N 38°27' E 025°11'1411.8
2014-Aug-20 05:21N 38°37' E 025°23'911.4
2014-Aug-20 04:33N 38°43' E 025°32'71 2.2
2014-Aug-18 20:06N 39°52' E 025°52'14611.5
2014-Aug-18 07:23N 40°45' E 028°51'1113.4
2014-Aug-18 06:33N 40°45' E 029°06'1313.0
2014-Aug-18 05:33N 40°44' E 029°23'10 9.7
2014-Aug-18 04:29N 40°45' E 029°37'2 0.1
2014-Aug-17 09:11N 40°45' E 029°35'6 9.6
2014-Aug-17 08:33N 40°44' E 029°27'9 8.3
2014-Aug-17 07:26N 40°43' E 029°15'0 0.1
2014-Aug-17 06:20N 40°43' E 029°15'0 0.1
2014-Aug-17 05:26N 40°43' E 029°15'3 3.5
2014-Aug-17 04:33N 40°44' E 029°11'1515.5
2014-Aug-17 03:33N 40°46' E 028°51'1212.1
2014-Aug-17 02:32N 40°56' E 028°41'2 0.3
2014-Aug-16 19:17N 40°58' E 028°41'0 0.0
2014-Aug-16 18:32N 40°58' E 028°41'2 0.1
2014-Aug-16 06:33N 40°56' E 028°41'2 1.7
2014-Aug-16 05:29N 40°55' E 028°39'  
2014-Aug-13 22:33N 43°54' E 035°57'1111.1
2014-Aug-13 21:33N 43°59' E 036°11'2311.4
2014-Aug-13 19:33N 44°09' E 036°39'1211.9
2014-Aug-13 18:33N 44°15' E 036°54'48 9.3
2014-Aug-13 13:21N 44°43' E 037°49'0 0.0
2014-Aug-13 12:33N 44°43' E 037°49'0 0.0
2014-Aug-13 11:33N 44°43' E 037°49'0 0.0
2014-Aug-13 10:33N 44°43' E 037°49'0 0.0
2014-Aug-13 09:27N 44°43' E 037°49'0 0.0
2014-Aug-13 08:33N 44°43' E 037°49'0 0.0
2014-Aug-13 07:33N 44°43' E 037°49'0 0.0
2014-Aug-13 05:21N 44°43' E 037°49'0 0.0
2014-Aug-13 04:30N 44°43' E 037°49'0 0.0
2014-Aug-13 03:33N 44°43' E 037°49'0 0.0
2014-Aug-13 02:27N 44°43' E 037°49'0 0.0
2014-Aug-13 01:32N 44°43' E 037°49'0 0.0
2014-Aug-13 00:32N 44°43' E 037°49'0 0.0
2014-Aug-12 23:33N 44°43' E 037°49'0 0.0
2014-Aug-12 22:21N 44°43' E 037°49'0 0.0
2014-Aug-12 21:32N 44°43' E 037°49'0 0.0
2014-Aug-12 20:32N 44°43' E 037°49'0 0.0
2014-Aug-12 19:32N 44°43' E 037°49'0 0.0
2014-Aug-12 18:26N 44°43' E 037°49'0 0.0
2014-Aug-12 17:32N 44°43' E 037°49'0 0.0
2014-Aug-12 16:32N 44°43' E 037°49'0 0.0
2014-Aug-12 15:26N 44°43' E 037°49'0 0.0
2014-Aug-12 14:32N 44°43' E 037°49'0 0.0
2014-Aug-12 13:32N 44°43' E 037°49'0 0.0
2014-Aug-12 12:32N 44°43' E 037°49'0 0.0
2014-Aug-12 11:14N 44°43' E 037°49'1 1.0
2014-Aug-12 10:33N 44°43' E 037°48'  

Dump ship's entire track history